Opa Locka, FL

3:18 PM EST on March 05, 2015 (GMT -0500)
Opa-Locka | Change Station
CLOSE
Current Station
Personal Weather Station
Location: Opa-locka, FL
Elevation: 10 ft
Nearby Weather Stations

Elev 10 ft 25.90 °N, 80.27 °W | Updated 4 seconds ago

Scattered Clouds
Scattered Clouds
82.9 °F
Feels Like 86 °F
N
9.2
Wind Variable Wind from SE
Gusts 12.3 mph

Today
High -- | Low -- °F
--% Chance of Precip.
Yesterday
High -- | Low -- °F
Precip. -- in
6:40 AM 6:24 PM
Full, 100% visible
Pressure 30.09 in
Visibility 10.0 miles
Clouds Scattered Clouds 3600 ft
Heat Index 86 °F
Dew Point 67 °F
Humidity 59%
Rainfall in
Snow Depth Not available.
UV 2.0 out of 12
Pollen 10.30 out of 12
Air Quality Not available.
Flu Activity Not available.
METAR KOPF 051953Z 16013KT 10SM SCT036 29/19 A3009 RMK AO2 SLP190 T02940194

More Conditions Fewer Conditions

Pressure 30.09 in
Visibility 10.0 miles
Clouds Scattered Clouds 3600 ft
Heat Index 86 °F
Dew Point 67 °F
Humidity 59%
Rainfall in
Snow Depth Not available.
UV 2.0 out of 12
Pollen 10.30 out of 12
Air Quality Not available.
Flu Activity Not available.
METAR KOPF 051953Z 16013KT 10SM SCT036 29/19 A3009 RMK AO2 SLP190 T02940194

More Conditions Fewer Conditions

10-Day Weather Forecast

Almanac

Astronomy

Mar. 05, 2015 Rise Set
Actual Time
Civil Twilight
Nautical Twilight
Astronomical Twilight
Moon
Length of Visible Light
Length of Day
Tomorrow will be .
, % of the Moon is Illuminated

Today's Extremes

State Highs State Lows

Community

WunderPhotos

Upload Photos

1,802,938 photos uploaded!

WunderBlogs® & News

Nearby

Air Quality

  Air Quality AQ Index Pollutant
Not available.

Snow Depth

Station Depth Elevation

Earthquake Activity

City Distance Mag. Time & Date
Minimum magnitude displayed is 2.5.

Coastal Water Temperatures

Place Temperature

Nearby Weather Stations